Time;durP1;ratioP1;P1;durP2;ratioP2;P2;SDS_P1;SDS_P2;PMS_P1;PMS_P2;Temp;Humidity;BMP_temperature;BMP_pressure;BME280_temperature;BME280_humidity;BME280_pressure;Samples;Min_cycle;Max_cycle;Signal;HPM_P1;HPM_P2
2022/12/13 00:01:23;;;;;;;18.50;7.57;;;;;;;-5.69;83.95;101175.41;5023547;28;20041;-78
2022/12/13 00:03:49;;;;;;;18.70;8.17;;;;;;;-5.70;83.75;101173.69;5030227;28;20312;-78
2022/12/13 00:06:14;;;;;;;18.47;8.37;;;;;;;-5.73;83.77;101173.53;5027674;28;20029;-78
2022/12/13 00:08:40;;;;;;;14.97;6.67;;;;;;;-5.72;84.29;101171.88;5040753;28;20025;-78
2022/12/13 00:11:09;;;;;;;22.37;8.87;;;;;;;-5.74;83.72;101171.78;5031535;28;20026;-78
2022/12/13 00:13:35;;;;;;;15.83;6.80;;;;;;;-5.72;83.55;101170.19;5024299;28;20106;-78
2022/12/13 00:16:06;;;;;;;19.83;8.80;;;;;;;-5.75;83.57;101170.06;5024702;28;20037;-78
2022/12/13 00:18:31;;;;;;;19.50;8.43;;;;;;;-5.78;83.61;101164.84;5029607;28;20087;-78
2022/12/13 00:20:57;;;;;;;21.53;8.43;;;;;;;-5.81;83.87;101165.59;5027106;28;20029;-78
2022/12/13 00:23:23;;;;;;;22.17;8.70;;;;;;;-5.80;83.78;101168.97;5028918;28;20473;-78
2022/12/13 00:25:48;;;;;;;22.57;9.03;;;;;;;-5.83;83.87;101168.84;5024944;28;20087;-78
2022/12/13 00:28:14;;;;;;;19.93;8.60;;;;;;;-5.85;84.00;101172.97;5028739;28;20033;-78
2022/12/13 00:30:41;;;;;;;21.13;9.13;;;;;;;-5.85;83.78;101170.44;5024105;28;20048;-78
2022/12/13 00:33:06;;;;;;;20.20;9.00;;;;;;;-5.87;83.72;101170.34;5025721;28;20033;-78
2022/12/13 00:35:32;;;;;;;21.17;8.90;;;;;;;-5.85;84.12;101163.69;5027635;28;20041;-78
2022/12/13 00:37:58;;;;;;;21.83;9.20;;;;;;;-5.84;84.24;101169.66;5024501;28;20426;-78
2022/12/13 00:40:23;;;;;;;24.87;9.77;;;;;;;-5.88;84.18;101162.69;5025966;28;20124;-78
2022/12/13 00:42:49;;;;;;;23.60;9.37;;;;;;;-5.91;83.91;101163.44;5024258;28;20064;-77
2022/12/13 00:45:14;;;;;;;21.83;9.20;;;;;;;-5.93;84.00;101165.03;5024338;28;20033;-78
2022/12/13 00:47:39;;;;;;;21.50;8.90;;;;;;;-5.96;83.98;101163.19;5026743;28;20044;-78
2022/12/13 00:50:05;;;;;;;16.97;7.20;;;;;;;-5.96;83.51;101160.66;5025028;28;20369;-77
2022/12/13 00:52:33;;;;;;;19.33;8.00;;;;;;;-5.93;83.64;101159.94;5012476;28;20072;-78
2022/12/13 00:54:58;;;;;;;20.10;8.80;;;;;;;-5.96;83.61;101160.66;5023670;28;20116;-77
2022/12/13 00:57:23;;;;;;;20.00;9.03;;;;;;;-5.97;83.85;101163.97;5030187;28;20455;-78
2022/12/13 00:59:49;;;;;;;20.80;8.17;;;;;;;-5.96;83.46;101158.13;5027442;28;20083;-78
2022/12/13 01:02:14;;;;;;;24.40;9.43;;;;;;;-5.99;83.60;101158.00;5031202;28;20091;-78
2022/12/13 01:04:39;;;;;;;17.37;8.27;;;;;;;-5.98;83.80;101167.31;5025357;28;20029;-78
2022/12/13 01:07:05;;;;;;;20.77;7.77;;;;;;;-5.99;83.79;101159.66;5026047;28;20108;-78
2022/12/13 01:09:31;;;;;;;19.40;9.13;;;;;;;-6.01;83.60;101167.22;5024841;28;20140;-78
2022/12/13 01:12:02;;;;;;;20.07;9.00;;;;;;;-6.05;83.99;101161.91;5027138;28;20069;-78
2022/12/13 01:14:28;;;;;;;22.33;9.45;;;;;;;-6.05;83.99;101164.44;5024749;28;20025;-78
2022/12/13 01:16:56;;;;;;;20.53;8.60;;;;;;;-6.05;83.79;101165.34;5024507;28;20036;-78
2022/12/13 01:19:23;;;;;;;17.57;8.47;;;;;;;-6.04;83.83;101161.13;5024154;28;20033;-78
2022/12/13 01:21:48;;;;;;;18.83;8.43;;;;;;;-6.05;84.22;101164.44;5026634;28;20032;-78
2022/12/13 01:24:14;;;;;;;18.67;8.00;;;;;;;-6.06;84.15;101163.59;5023980;28;20108;-78
2022/12/13 01:26:40;;;;;;;19.83;8.50;;;;;;;-6.08;83.84;101157.59;5025793;28;20045;-78
2022/12/13 01:29:05;;;;;;;21.47;9.13;;;;;;;-6.09;83.70;101160.91;5024738;28;20390;-78
2022/12/13 01:31:30;;;;;;;19.43;8.87;;;;;;;-6.12;84.36;101160.75;5007680;28;20029;-78
2022/12/13 01:33:56;;;;;;;19.93;7.80;;;;;;;-6.12;83.63;101163.28;5026059;28;20443;-78
2022/12/13 01:36:22;;;;;;;20.47;8.53;;;;;;;-6.12;84.07;101160.75;5022450;28;20040;-78
2022/12/13 01:38:48;;;;;;;20.93;8.30;;;;;;;-6.15;84.14;101151.38;5026484;28;20468;-78
2022/12/13 01:41:16;;;;;;;23.00;8.87;;;;;;;-6.12;84.05;101156.59;5025252;28;20112;-78
2022/12/13 01:43:41;;;;;;;25.13;10.10;;;;;;;-6.13;84.11;101161.56;5025072;28;20159;-78
2022/12/13 01:46:08;;;;;;;26.10;9.20;;;;;;;-6.14;83.56;101164.88;5023611;28;20537;-78
2022/12/13 01:48:40;;;;;;;23.27;9.07;;;;;;;-6.19;83.66;101161.28;5024981;28;20022;-78
2022/12/13 01:51:08;;;;;;;21.33;8.60;;;;;;;-6.20;83.56;101160.41;5024145;28;20495;-78
2022/12/13 01:53:37;;;;;;;19.53;8.23;;;;;;;-6.21;83.30;101157.81;5025021;28;20076;-78
2022/12/13 01:56:16;;;;;;;16.70;7.90;;;;;;;-6.22;83.99;101167.06;5022682;28;20037;-78
2022/12/13 01:58:42;;;;;;;19.20;8.00;;;;;;;-6.20;83.40;101164.63;5028922;28;20406;-77
2022/12/13 02:01:07;;;;;;;17.67;8.07;;;;;;;-6.23;83.31;101165.31;5024811;28;20041;-78
2022/12/13 02:03:34;;;;;;;17.77;7.50;;;;;;;-6.22;83.17;101161.13;5030208;28;20060;-78
2022/12/13 02:06:08;;;;;;;18.97;8.47;;;;;;;-6.25;82.79;101157.66;5027771;28;20029;-78
2022/12/13 02:08:35;;;;;;;18.87;7.57;;;;;;;-6.27;83.48;101166.00;5027586;28;20037;-78
2022/12/13 02:11:02;;;;;;;19.50;8.03;;;;;;;-6.28;83.52;101164.25;5026579;28;20037;-78
2022/12/13 02:13:27;;;;;;;19.83;8.50;;;;;;;-6.29;83.43;101163.38;5023446;28;20449;-77
2022/12/13 02:16:13;;;;;;;18.50;7.87;;;;;;;-6.29;83.49;101160.84;5027428;28;20037;-77
2022/12/13 02:18:47;;;;;;;17.67;7.93;;;;;;;-6.30;83.83;101161.63;5030428;28;20237;-77
2022/12/13 02:21:24;;;;;;;18.77;8.23;;;;;;;-6.33;83.23;101166.56;5027966;28;20456;-78
2022/12/13 02:24:08;;;;;;;18.90;8.27;;;;;;;-6.34;83.17;101157.22;5023787;28;20029;-77
2022/12/13 02:26:52;;;;;;;17.03;6.70;;;;;;;-6.34;83.91;101157.22;5026097;28;20038;-77
2022/12/13 02:29:35;;;;;;;19.87;7.70;;;;;;;-6.36;83.30;101158.81;5028107;28;20092;-78
2022/12/13 02:32:25;;;;;;;18.40;7.97;;;;;;;-6.39;83.49;101163.72;5027517;28;20034;-78
2022/12/13 02:35:01;;;;;;;23.93;8.20;;;;;;;-6.41;83.25;101160.25;5025683;28;20041;-77
2022/12/13 02:37:44;;;;;;;19.33;8.03;;;;;;;-6.40;83.12;101162.00;5028733;28;20033;-78
2022/12/13 02:40:24;;;;;;;17.30;7.80;;;;;;;-6.40;83.29;101146.78;5023116;28;20029;-78
2022/12/13 02:43:03;;;;;;;18.10;8.17;;;;;;;-6.43;83.45;101157.66;5029331;28;20049;-78
2022/12/13 02:45:46;;;;;;;19.57;8.80;;;;;;;-6.43;83.89;101151.72;5026865;28;20037;-78
2022/12/13 02:48:14;;;;;;;20.77;9.20;;;;;;;-6.45;83.32;101153.28;5025047;28;20121;-78
2022/12/13 02:50:40;;;;;;;20.93;8.77;;;;;;;-6.45;83.36;101146.59;5018928;28;20449;-78
2022/12/13 02:53:08;;;;;;;22.60;9.23;;;;;;;-6.42;83.79;101145.84;5027229;28;20025;-78
2022/12/13 02:55:37;;;;;;;20.50;8.47;;;;;;;-6.41;83.35;101145.06;5020322;28;20030;-78
2022/12/13 02:58:02;;;;;;;19.10;7.50;;;;;;;-6.38;83.51;101146.84;5031266;28;20033;-78
2022/12/13 03:00:33;;;;;;;22.87;8.77;;;;;;;-6.44;83.58;101134.78;5031195;28;20531;-78
2022/12/13 03:03:36;;;;;;;22.17;8.75;;;;;;;-6.44;83.19;101137.31;5016201;28;20384;-78
2022/12/13 03:06:28;;;;;;;;;;;;;;;-6.44;83.96;101137.31;5022519;28;20033;-78
2022/12/13 03:09:12;;;;;;;;;;;;;;;-6.47;83.23;101137.16;5035861;28;19967;-78
2022/12/13 03:14:45;;;;;;;20.57;9.03;;;;;;;-6.53;83.86;101129.28;5035208;28;20414;-78
2022/12/13 03:17:15;;;;;;;23.27;9.63;;;;;;;-6.58;84.11;101127.41;5023832;28;20088;-78
2022/12/13 03:19:41;;;;;;;20.43;8.30;;;;;;;-6.56;84.08;101135.94;5022033;28;20119;-78
2022/12/13 03:22:06;;;;;;;20.73;8.67;;;;;;;-6.57;84.04;101129.13;5034498;28;20544;-78
2022/12/13 03:24:31;;;;;;;19.90;8.43;;;;;;;-6.55;83.72;101131.72;5025387;28;20025;-78
2022/12/13 03:26:57;;;;;;;19.87;7.80;;;;;;;-6.53;83.62;101124.22;5032022;28;20156;-78
2022/12/13 03:29:22;;;;;;;18.37;7.43;;;;;;;-6.52;83.22;101129.34;5029661;28;20052;-78
2022/12/13 03:31:47;;;;;;;27.27;9.47;;;;;;;-6.53;83.39;101126.75;5024865;28;20408;-78
2022/12/13 03:34:13;;;;;;;23.23;9.33;;;;;;;-6.57;83.43;101134.19;5026593;28;20112;-78
2022/12/13 03:36:38;;;;;;;22.03;8.47;;;;;;;-6.56;83.48;101135.94;5024647;28;20508;-78
2022/12/13 03:39:03;;;;;;;25.10;9.70;;;;;;;-6.54;83.59;101137.66;5027336;28;20579;-78
2022/12/13 03:41:32;;;;;;;20.03;8.20;;;;;;;-6.56;83.71;101135.94;5025796;28;20033;-78
2022/12/13 03:44:02;;;;;;;20.60;8.40;;;;;;;-6.56;83.79;101129.97;5026077;28;20037;-78
2022/12/13 03:46:27;;;;;;;22.93;8.47;;;;;;;-6.57;83.58;101129.13;5026114;28;20070;-78
2022/12/13 03:48:52;;;;;;;20.60;8.33;;;;;;;-6.56;83.28;101133.41;5024294;28;20374;-78
2022/12/13 03:51:17;;;;;;;19.83;8.07;;;;;;;-6.57;83.66;101134.19;5026134;28;20041;-78
2022/12/13 03:53:43;;;;;;;21.60;8.93;;;;;;;-6.57;83.97;101129.13;5024967;28;20473;-78
2022/12/13 03:56:08;;;;;;;20.43;8.40;;;;;;;-6.58;83.95;101132.44;5024515;28;20037;-78
2022/12/13 03:58:34;;;;;;;22.50;9.10;;;;;;;-6.54;84.21;101130.06;5028762;28;20048;-78
2022/12/13 04:01:00;;;;;;;23.13;9.80;;;;;;;-6.55;84.28;101131.72;5026668;28;20102;-78
2022/12/13 04:03:25;;;;;;;25.20;9.17;;;;;;;-6.56;84.25;101130.88;5026360;28;20087;-78
2022/12/13 04:05:50;;;;;;;20.07;8.23;;;;;;;-6.53;84.16;101134.34;5025010;28;20417;-78
2022/12/13 04:08:15;;;;;;;19.43;7.80;;;;;;;-6.51;84.34;101130.22;5026837;28;20021;-78
2022/12/13 04:10:41;;;;;;;20.13;8.40;;;;;;;-6.50;83.74;101129.44;5033375;28;20443;-78
2022/12/13 04:15:50;;;;;;;23.33;9.60;;;;;;;-6.48;84.14;101127.81;5026126;28;20124;-78
2022/12/13 04:18:18;;;;;;;24.90;10.23;;;;;;;-6.49;83.94;101131.19;5028159;28;20037;-78
2022/12/13 04:20:44;;;;;;;24.73;10.03;;;;;;;-6.50;84.37;101126.91;5024045;28;20025;-78
2022/12/13 04:23:10;;;;;;;25.13;10.10;;;;;;;-6.52;83.61;101121.75;5007958;28;20045;-78
2022/12/13 04:25:35;;;;;;;23.80;9.33;;;;;;;-6.53;84.25;101114.97;5025643;28;20089;-78
2022/12/13 04:28:01;;;;;;;21.17;9.27;;;;;;;-6.52;83.39;101119.22;5026898;28;20033;-78
2022/12/13 04:30:26;;;;;;;30.20;11.13;;;;;;;-6.52;83.58;101115.84;5024129;28;20045;-78
2022/12/13 04:32:51;;;;;;;26.80;10.63;;;;;;;-6.53;83.85;101109.91;5023401;28;20041;-78
2022/12/13 04:35:17;;;;;;;21.90;9.93;;;;;;;-6.55;83.99;101106.41;5028886;28;20029;-78
2022/12/13 04:37:43;;;;;;;23.73;10.07;;;;;;;-6.57;84.15;101103.81;5025554;28;20076;-78
2022/12/13 04:40:09;;;;;;;19.60;9.17;;;;;;;-6.58;84.50;101107.16;5029054;28;20369;-78
2022/12/13 04:42:34;;;;;;;21.83;8.97;;;;;;;-6.60;84.13;101103.66;5020428;28;20086;-78
2022/12/13 04:44:59;;;;;;;23.67;9.40;;;;;;;-6.62;83.81;101110.31;5031916;28;20120;-78
2022/12/13 04:47:25;;;;;;;22.83;9.17;;;;;;;-6.63;84.26;101106.03;5024564;28;20028;-78
2022/12/13 04:49:50;;;;;;;22.40;8.97;;;;;;;-6.62;84.19;101115.38;5030363;28;20421;-78
2022/12/13 04:52:15;;;;;;;23.97;9.20;;;;;;;-6.62;83.75;101104.41;5025246;28;20040;-78
2022/12/13 04:54:41;;;;;;;21.47;8.67;;;;;;;-6.63;84.68;101103.50;5026049;28;20176;-78
2022/12/13 04:57:08;;;;;;;19.97;8.87;;;;;;;-6.62;84.48;101105.25;5031026;28;20083;-78
2022/12/13 04:59:34;;;;;;;24.10;9.37;;;;;;;-6.60;84.46;101105.34;5026562;28;20409;-78
2022/12/13 05:02:00;;;;;;;19.50;8.50;;;;;;;-6.57;84.31;101108.88;5031232;28;20033;-78
2022/12/13 05:04:25;;;;;;;22.80;9.77;;;;;;;-6.55;84.33;101114.00;5030087;28;20029;-78
2022/12/13 05:06:50;;;;;;;20.13;9.50;;;;;;;-6.53;84.25;101107.38;5030839;28;20025;-78
2022/12/13 05:09:15;;;;;;;21.73;9.47;;;;;;;-6.49;84.73;101106.72;5030032;28;20040;-78
2022/12/13 05:11:41;;;;;;;21.73;9.10;;;;;;;-6.47;84.32;101099.19;5031522;28;20602;-78
2022/12/13 05:14:06;;;;;;;23.90;10.17;;;;;;;-6.48;84.15;101098.34;5030611;28;20029;-78
2022/12/13 05:16:31;;;;;;;24.53;9.30;;;;;;;-6.44;85.18;101096.81;5028688;28;20033;-78
2022/12/13 05:18:56;;;;;;;24.00;9.70;;;;;;;-6.42;85.11;101097.75;5025820;28;20021;-78
2022/12/13 05:21:22;;;;;;;23.83;10.00;;;;;;;-6.41;84.95;101091.91;5032370;28;20472;-78
2022/12/13 05:23:47;;;;;;;21.53;9.60;;;;;;;-6.38;85.21;101088.63;5031821;28;20037;-78
2022/12/13 05:26:12;;;;;;;23.80;9.80;;;;;;;-6.37;85.08;101088.72;5032818;28;20061;-78
2022/12/13 05:28:37;;;;;;;20.63;9.40;;;;;;;-6.35;84.65;101089.66;5027747;28;20526;-78
2022/12/13 05:31:09;;;;;;;24.77;10.23;;;;;;;-6.37;84.86;101085.31;5031124;28;20035;-78
2022/12/13 05:33:35;;;;;;;21.30;9.48;;;;;;;-6.37;84.81;101083.66;5026248;28;20033;-78
2022/12/13 05:36:00;;;;;;;21.30;9.00;;;;;;;-6.39;85.02;101082.72;5025025;28;20083;-78
2022/12/13 05:38:25;;;;;;;22.80;9.40;;;;;;;-6.37;85.06;101086.19;5022540;28;20103;-78
2022/12/13 05:40:51;;;;;;;20.10;8.97;;;;;;;-6.36;85.13;101077.81;5027857;28;20033;-78
2022/12/13 05:43:16;;;;;;;25.17;10.27;;;;;;;-6.36;84.43;101080.34;5024594;28;20473;-78
2022/12/13 05:45:41;;;;;;;26.77;9.97;;;;;;;-6.38;84.89;101073.44;5037540;28;20048;-78
2022/12/13 05:48:07;;;;;;;27.43;11.30;;;;;;;-6.39;84.78;101070.06;5035540;28;20017;-78
2022/12/13 05:50:33;;;;;;;21.93;9.47;;;;;;;-6.39;84.91;101070.06;5036409;28;20033;-77
2022/12/13 05:52:58;;;;;;;24.27;9.93;;;;;;;-6.41;85.14;101067.47;5036295;28;20370;-78
2022/12/13 05:55:24;;;;;;;23.20;9.57;;;;;;;-6.38;85.29;101068.38;5035715;28;20053;-78
2022/12/13 05:57:49;;;;;;;22.50;8.77;;;;;;;-6.36;84.75;101067.69;5037566;28;20503;-78
2022/12/13 06:00:14;;;;;;;23.73;10.60;;;;;;;-6.37;85.14;101065.06;5027196;28;20089;-78
2022/12/13 06:02:41;;;;;;;24.97;10.33;;;;;;;-6.42;85.30;101062.31;5032689;28;20034;-78
2022/12/13 06:05:08;;;;;;;26.63;10.23;;;;;;;-6.42;84.73;101067.38;5032448;28;20124;-78
2022/12/13 06:07:34;;;;;;;24.20;9.73;;;;;;;-6.44;85.39;101061.38;5032657;28;20026;-78
2022/12/13 06:09:59;;;;;;;22.73;9.33;;;;;;;-6.46;85.08;101060.44;5037986;28;20040;-78
2022/12/13 06:12:25;;;;;;;24.77;10.40;;;;;;;-6.48;85.27;101072.13;5026919;28;20029;-78
2022/12/13 06:14:50;;;;;;;20.97;9.43;;;;;;;-6.46;85.07;101068.91;5031923;28;20025;-78
2022/12/13 06:17:15;;;;;;;20.40;9.47;;;;;;;-6.49;84.98;101071.28;5033202;28;20389;-78
2022/12/13 06:19:41;;;;;;;22.60;9.10;;;;;;;-6.50;85.02;101072.09;5030458;28;20033;-78
2022/12/13 06:22:06;;;;;;;23.10;8.83;;;;;;;-6.50;84.52;101073.75;5036762;28;20033;-78
2022/12/13 06:24:32;;;;;;;19.60;8.40;;;;;;;-6.51;85.28;101072.88;5033705;28;20037;-77
2022/12/13 06:26:58;;;;;;;19.30;8.67;;;;;;;-6.53;84.99;101066.88;5029985;28;20055;-78
2022/12/13 06:29:25;;;;;;;21.67;9.33;;;;;;;-6.56;85.11;101075.19;5031612;28;20060;-78
2022/12/13 06:31:54;;;;;;;26.43;10.27;;;;;;;-6.61;84.28;101076.63;5032562;28;20423;-78
2022/12/13 06:34:19;;;;;;;19.67;9.43;;;;;;;-6.63;84.34;101078.22;5029384;28;20033;-77
2022/12/13 06:36:45;;;;;;;22.50;9.63;;;;;;;-6.65;84.09;101077.25;5032753;28;20090;-78
2022/12/13 06:39:10;;;;;;;20.50;8.57;;;;;;;-6.66;83.96;101080.59;5033795;28;20033;-77
2022/12/13 06:41:35;;;;;;;25.60;9.30;;;;;;;-6.68;84.27;101078.78;5031607;28;20133;-78
2022/12/13 06:44:01;;;;;;;24.57;8.63;;;;;;;-6.69;84.68;101082.13;5027477;28;20037;-78
2022/12/13 06:46:26;;;;;;;21.57;9.07;;;;;;;-6.72;84.54;101082.84;5032558;28;20030;-78
2022/12/13 06:48:52;;;;;;;22.10;9.60;;;;;;;-6.71;83.99;101080.38;5031111;28;20410;-78
2022/12/13 06:51:17;;;;;;;19.87;8.10;;;;;;;-6.71;84.14;101079.53;5030976;28;20087;-78
2022/12/13 06:53:42;;;;;;;21.97;9.27;;;;;;;-6.73;83.97;101081.09;5025266;28;20388;-77
2022/12/13 06:56:11;;;;;;;23.93;9.93;;;;;;;-6.74;84.56;101074.31;5025725;28;20092;-78
2022/12/13 06:58:37;;;;;;;21.17;9.33;;;;;;;-6.71;85.33;101074.47;5028198;28;20040;-78
2022/12/13 07:01:07;;;;;;;26.13;10.73;;;;;;;-6.69;85.59;101077.94;5027055;28;20043;-77
2022/12/13 07:03:34;;;;;;;21.07;9.23;;;;;;;-6.66;85.45;101079.75;5028179;28;20041;-78
2022/12/13 07:06:04;;;;;;;20.50;8.60;;;;;;;-6.67;85.21;101073.81;5027998;28;20037;-77
2022/12/13 07:08:30;;;;;;;25.43;10.90;;;;;;;-6.65;84.99;101074.72;5033259;28;20061;-78
2022/12/13 07:10:56;;;;;;;24.60;10.53;;;;;;;-6.63;85.32;101088.34;5027050;28;20033;-78
2022/12/13 07:13:21;;;;;;;24.97;10.47;;;;;;;-6.62;85.57;101079.94;5027644;28;20445;-77
2022/12/13 07:15:47;;;;;;;24.27;10.00;;;;;;;-6.60;84.89;101082.56;5026215;28;20041;-78
2022/12/13 07:18:12;;;;;;;25.77;10.77;;;;;;;-6.60;85.08;101082.56;5026437;28;20044;-78
2022/12/13 07:20:39;;;;;;;30.57;11.77;;;;;;;-6.61;85.40;101081.69;5027315;28;20033;-77
2022/12/13 07:23:04;;;;;;;22.90;9.50;;;;;;;-6.60;85.09;101077.50;5027708;28;20116;-78
2022/12/13 07:25:29;;;;;;;22.50;9.87;;;;;;;-6.58;84.98;101075.94;5027705;28;20167;-78
2022/12/13 07:27:56;;;;;;;23.50;10.43;;;;;;;-6.61;84.90;101079.16;5028757;28;20032;-78
2022/12/13 07:30:22;;;;;;;25.70;11.13;;;;;;;-6.60;85.14;101078.38;5027556;28;20060;-78
2022/12/13 07:32:47;;;;;;;24.70;10.97;;;;;;;-6.62;85.40;101081.63;5025464;28;20029;-77
2022/12/13 07:35:12;;;;;;;25.77;10.53;;;;;;;-6.61;84.96;101086.75;5024485;28;20455;-78
2022/12/13 07:37:37;;;;;;;27.07;10.53;;;;;;;-6.62;84.73;101082.47;5026167;28;20100;-78
2022/12/13 07:40:03;;;;;;;23.03;9.83;;;;;;;-6.62;85.60;101079.94;5025969;28;20022;-77
2022/12/13 07:42:28;;;;;;;27.60;10.60;;;;;;;-6.61;85.80;101086.75;5026140;28;20033;-78
2022/12/13 07:44:53;;;;;;;27.13;10.87;;;;;;;-6.60;84.93;101093.56;5032077;28;20109;-78
2022/12/13 07:47:19;;;;;;;27.27;10.03;;;;;;;-6.61;85.93;101089.28;5031539;28;20424;-77
2022/12/13 07:49:44;;;;;;;26.67;10.53;;;;;;;-6.59;85.84;101079.25;5023014;28;20033;-78
2022/12/13 07:52:10;;;;;;;24.23;9.67;;;;;;;-6.59;85.56;101084.31;5028140;28;20448;-78
2022/12/13 07:54:35;;;;;;;26.87;10.57;;;;;;;-6.57;85.35;101093.69;5025415;28;20084;-78
2022/12/13 07:57:01;;;;;;;25.23;10.17;;;;;;;-6.53;85.70;101093.84;5025674;28;20029;-78
2022/12/13 07:59:26;;;;;;;27.30;11.03;;;;;;;-6.52;85.70;101096.44;5026787;28;20461;-78
2022/12/13 08:01:51;;;;;;;31.63;12.47;;;;;;;-6.49;85.54;101100.81;5025470;28;20049;-77
2022/12/13 08:04:16;;;;;;;26.53;11.23;;;;;;;-6.47;85.21;101104.25;5026713;28;20040;-78
2022/12/13 08:06:42;;;;;;;26.50;10.70;;;;;;;-6.44;85.94;101106.94;5025661;28;20029;-78
2022/12/13 08:09:07;;;;;;;25.63;11.27;;;;;;;-6.44;85.70;101100.22;5029550;28;20108;-77
2022/12/13 08:11:32;;;;;;;27.90;10.70;;;;;;;-6.41;85.18;101100.38;5025898;28;20040;-77
2022/12/13 08:13:58;;;;;;;30.13;12.30;;;;;;;-6.40;85.74;101091.09;5030630;28;20061;-78
2022/12/13 08:16:23;;;;;;;27.43;11.30;;;;;;;-6.36;85.27;101090.47;5024388;28;20084;-78
2022/12/13 08:18:49;;;;;;;29.43;12.47;;;;;;;-6.34;85.71;101091.41;5023897;28;20492;-78
2022/12/13 08:21:14;;;;;;;26.70;11.13;;;;;;;-6.32;85.81;101084.72;5025693;28;20041;-78
2022/12/13 08:23:39;;;;;;;36.83;13.80;;;;;;;-6.32;85.46;101079.66;5024592;28;20036;-78
2022/12/13 08:26:05;;;;;;;28.67;12.13;;;;;;;-6.29;85.62;101089.94;5024424;28;20391;-78
2022/12/13 08:28:32;;;;;;;27.73;11.50;;;;;;;-6.24;85.33;101092.72;5021722;28;20041;-78
2022/12/13 08:31:06;;;;;;;34.40;12.93;;;;;;;-6.21;85.98;101097.88;5020933;28;20055;-77
2022/12/13 08:33:33;;;;;;;29.37;12.27;;;;;;;-6.18;86.13;101097.19;5025172;28;20030;-77
2022/12/13 08:36:22;;;;;;;29.57;12.13;;;;;;;-6.13;85.87;101095.72;5024777;28;20025;-78
2022/12/13 08:38:48;;;;;;;32.50;13.17;;;;;;;-6.09;85.91;101102.66;5021116;28;20025;-78
2022/12/13 08:41:13;;;;;;;26.23;11.57;;;;;;;-6.05;85.59;101106.19;5006503;28;20037;-77
2022/12/13 08:43:39;;;;;;;30.13;13.17;;;;;;;-6.03;86.20;101097.88;5029384;28;20111;-77
2022/12/13 08:46:05;;;;;;;30.03;12.50;;;;;;;-5.99;86.02;101106.47;5017584;28;20469;-78
2022/12/13 08:48:30;;;;;;;35.03;12.90;;;;;;;-5.96;85.54;101110.00;5025122;28;20108;-78
2022/12/13 08:51:04;;;;;;;29.97;12.10;;;;;;;-5.92;86.34;101111.03;5031576;28;20124;-78
2022/12/13 08:53:29;;;;;;;33.73;14.20;;;;;;;-5.88;85.93;101112.88;5027265;28;20021;-78
2022/12/13 08:55:59;;;;;;;31.97;13.00;;;;;;;-5.82;86.30;101109.78;5027616;28;20163;-78
2022/12/13 08:58:25;;;;;;;29.20;12.47;;;;;;;-5.78;86.48;101119.22;5027555;28;20032;-78
2022/12/13 09:00:50;;;;;;;33.30;13.63;;;;;;;-5.75;86.47;101111.78;5026568;28;20041;-77
2022/12/13 09:03:15;;;;;;;30.90;13.67;;;;;;;-5.68;86.04;101118.88;5029196;28;20067;-78
2022/12/13 09:05:41;;;;;;;36.30;14.57;;;;;;;-5.61;86.48;101124.19;5031890;28;20385;-78
2022/12/13 09:08:06;;;;;;;33.33;13.93;;;;;;;-5.56;86.68;101122.75;5028215;28;20061;-78
2022/12/13 09:10:31;;;;;;;34.40;13.43;;;;;;;-5.49;86.81;101117.16;5028026;28;20021;-78
2022/12/13 09:12:59;;;;;;;31.40;12.43;;;;;;;-5.43;86.95;101116.56;5024574;28;20104;-77
2022/12/13 09:15:26;;;;;;;28.73;12.33;;;;;;;-5.38;86.57;101115.94;5008313;28;20480;-77
2022/12/13 09:17:51;;;;;;;26.57;12.00;;;;;;;-5.32;86.92;101114.50;5020309;28;20022;-77
2022/12/13 09:20:17;;;;;;;36.23;14.00;;;;;;;-5.26;86.95;101117.25;5023868;28;20032;-78
2022/12/13 09:22:42;;;;;;;34.07;14.03;;;;;;;-5.20;86.52;101112.47;5022912;28;20160;-78
2022/12/13 09:25:08;;;;;;;31.60;13.47;;;;;;;-5.13;86.82;101117.03;5023124;28;20036;-78
2022/12/13 09:27:33;;;;;;;32.83;13.13;;;;;;;-5.08;86.81;101112.97;5026556;28;20030;-78
2022/12/13 09:29:59;;;;;;;28.70;11.80;;;;;;;-5.01;87.05;101113.25;5021868;28;20382;-77
2022/12/13 09:32:26;;;;;;;31.57;12.13;;;;;;;-4.96;86.89;101114.31;5024035;28;20499;-77
2022/12/13 09:34:51;;;;;;;33.47;13.13;;;;;;;-4.90;86.80;101106.94;5025040;28;20428;-77
2022/12/13 09:37:16;;;;;;;33.10;13.23;;;;;;;-4.85;87.31;101118.16;5025765;28;20076;-79
2022/12/13 09:39:42;;;;;;;34.53;13.67;;;;;;;-4.79;87.24;101113.34;5022665;28;20022;-78
2022/12/13 09:42:28;;;;;;;30.27;12.67;;;;;;;-4.70;87.13;101112.00;5021607;28;20496;-79
2022/12/13 09:44:58;;;;;;;28.10;12.00;;;;;;;-4.63;87.54;101113.97;5023966;28;20449;-78
2022/12/13 09:47:34;;;;;;;28.90;12.70;;;;;;;-4.55;87.17;101117.69;5022806;28;20025;-77
2022/12/13 09:50:01;;;;;;;29.20;12.10;;;;;;;-4.46;87.33;101115.53;5021826;28;20048;-77
2022/12/13 09:52:34;;;;;;;30.73;13.40;;;;;;;-4.37;87.77;101116.69;5022759;28;20040;-77
2022/12/13 09:55:00;;;;;;;28.13;12.40;;;;;;;-4.32;87.42;101112.66;5023049;28;20061;-78
2022/12/13 09:57:29;;;;;;;30.53;13.40;;;;;;;-4.26;87.35;101102.72;5023726;28;20084;-78
2022/12/13 09:59:54;;;;;;;30.90;13.10;;;;;;;-4.18;87.61;101100.47;5020670;28;20029;-78
2022/12/13 10:02:23;;;;;;;29.40;12.70;;;;;;;-4.10;87.97;101098.28;5022752;28;20400;-78
2022/12/13 10:04:49;;;;;;;33.60;13.77;;;;;;;-4.04;87.63;101090.84;5020274;28;20499;-78
2022/12/13 10:07:20;;;;;;;28.00;11.40;;;;;;;-3.99;87.63;101084.28;5022686;28;20030;-78
2022/12/13 10:09:47;;;;;;;34.83;14.02;;;;;;;-3.91;87.33;101087.13;5023434;28;20029;-78
2022/12/13 10:12:15;;;;;;;26.37;12.10;;;;;;;-3.85;87.65;101082.28;5024218;28;20033;-78
2022/12/13 10:14:52;;;;;;;29.63;12.50;;;;;;;-3.82;87.13;101070.53;5024319;28;20132;-78
2022/12/13 10:17:21;;;;;;;28.57;12.80;;;;;;;-3.75;86.96;101080.91;5025837;28;20033;-78
2022/12/13 10:19:51;;;;;;;31.27;12.73;;;;;;;-3.71;87.33;101075.13;5022113;28;20033;-78
2022/12/13 10:22:19;;;;;;;34.70;14.83;;;;;;;-3.66;86.90;101068.53;5021498;28;20091;-77
2022/12/13 10:24:52;;;;;;;30.57;12.97;;;;;;;-3.62;86.94;101074.59;5024825;28;20036;-77
2022/12/13 10:27:44;;;;;;;28.30;11.87;;;;;;;-3.58;87.16;101072.22;5022777;28;20389;-77
2022/12/13 10:30:24;;;;;;;32.17;13.70;;;;;;;-3.53;87.05;101060.53;5027662;28;20080;-77
2022/12/13 10:33:05;;;;;;;26.17;12.40;;;;;;;-3.48;87.24;101054.75;5027989;28;20056;-77
2022/12/13 10:35:39;;;;;;;30.97;12.87;;;;;;;-3.45;86.66;101052.31;5029064;28;20420;-78
2022/12/13 10:38:08;;;;;;;30.53;12.43;;;;;;;-3.43;86.99;101045.63;5029116;28;20719;-78
2022/12/13 10:40:36;;;;;;;29.37;13.03;;;;;;;-3.43;86.29;101048.16;5028917;28;20029;-77
2022/12/13 10:43:19;;;;;;;33.97;13.50;;;;;;;-3.41;86.46;101038.88;5026750;28;20025;-77
2022/12/13 10:45:56;;;;;;;29.13;12.77;;;;;;;-3.38;87.16;101041.53;5028430;28;20106;-78
2022/12/13 10:48:29;;;;;;;25.77;11.43;;;;;;;-3.32;87.35;101040.88;5027074;28;20024;-77
2022/12/13 10:51:07;;;;;;;33.53;12.83;;;;;;;-3.27;86.77;101032.59;5025943;28;20025;-77
2022/12/13 10:53:44;;;;;;;28.10;13.23;;;;;;;-3.21;86.95;101031.94;5009751;28;20040;-77
2022/12/13 10:56:09;;;;;;;28.10;11.53;;;;;;;-3.16;87.04;101035.50;5027160;28;20086;-77
2022/12/13 10:59:05;;;;;;;28.03;11.73;;;;;;;-3.10;86.78;101024.66;5026391;28;20033;-77
2022/12/13 11:01:30;;;;;;;26.70;11.83;;;;;;;-2.99;86.49;101027.56;5024795;28;20488;-77
2022/12/13 11:04:01;;;;;;;30.07;12.87;;;;;;;-2.93;86.99;101009.94;5026796;28;20021;-77
2022/12/13 11:06:32;;;;;;;25.13;12.27;;;;;;;-2.87;86.17;101016.91;5009570;28;20104;-77
2022/12/13 11:08:58;;;;;;;28.73;12.95;;;;;;;-2.83;86.44;101006.00;5029089;28;20037;-77
2022/12/13 11:11:28;;;;;;;25.27;11.80;;;;;;;-2.80;85.50;101006.09;5025887;28;20048;-77
2022/12/13 11:14:02;;;;;;;24.55;10.75;;;;;;;-2.80;85.50;100999.31;5025760;28;20488;-77
2022/12/13 11:16:36;;;;;;;27.70;12.33;;;;;;;-2.80;85.42;101003.56;5024736;28;20049;-77
2022/12/13 11:19:06;;;;;;;26.90;11.97;;;;;;;-2.80;85.45;100998.47;5027192;28;20040;-77
2022/12/13 11:21:36;;;;;;;25.50;11.23;;;;;;;-2.80;85.41;100983.19;5024735;28;20041;-77
2022/12/13 11:24:07;;;;;;;26.87;11.70;;;;;;;-2.76;85.58;100996.06;5025913;28;20029;-77